sensor_id;sensor_type;location;lat;lon;timestamp;P1;durP1;ratioP1;P2;durP2;ratioP2
4786;SDS011;62338;48.832;9.422;2023-08-06T00:01:30;9.63;;;6.33;;
4786;SDS011;62338;48.832;9.422;2023-08-06T00:03:32;8.27;;;6.83;;
4786;SDS011;62338;48.832;9.422;2023-08-06T00:05:33;8.30;;;6.77;;
4786;SDS011;62338;48.832;9.422;2023-08-06T00:07:35;11.40;;;7.33;;
4786;SDS011;62338;48.832;9.422;2023-08-06T00:09:37;8.80;;;6.73;;
4786;SDS011;62338;48.832;9.422;2023-08-06T00:11:39;8.47;;;6.17;;
4786;SDS011;62338;48.832;9.422;2023-08-06T00:13:42;9.47;;;6.40;;
4786;SDS011;62338;48.832;9.422;2023-08-06T00:15:44;9.70;;;7.50;;
4786;SDS011;62338;48.832;9.422;2023-08-06T00:17:46;8.50;;;6.83;;
4786;SDS011;62338;48.832;9.422;2023-08-06T00:19:47;8.90;;;6.83;;
4786;SDS011;62338;48.832;9.422;2023-08-06T00:21:49;8.47;;;5.90;;
4786;SDS011;62338;48.832;9.422;2023-08-06T00:23:51;7.60;;;6.80;;
4786;SDS011;62338;48.832;9.422;2023-08-06T00:25:53;15.83;;;6.90;;
4786;SDS011;62338;48.832;9.422;2023-08-06T00:27:55;8.37;;;6.77;;
4786;SDS011;62338;48.832;9.422;2023-08-06T00:29:58;7.50;;;5.80;;
4786;SDS011;62338;48.832;9.422;2023-08-06T00:32:00;8.03;;;5.90;;
4786;SDS011;62338;48.832;9.422;2023-08-06T00:34:02;7.27;;;6.40;;
4786;SDS011;62338;48.832;9.422;2023-08-06T00:36:03;9.40;;;6.37;;
4786;SDS011;62338;48.832;9.422;2023-08-06T00:38:05;8.93;;;5.73;;
4786;SDS011;62338;48.832;9.422;2023-08-06T00:40:07;7.93;;;5.90;;
4786;SDS011;62338;48.832;9.422;2023-08-06T00:42:10;6.63;;;5.83;;
4786;SDS011;62338;48.832;9.422;2023-08-06T00:44:12;10.73;;;6.40;;
4786;SDS011;62338;48.832;9.422;2023-08-06T00:46:14;9.73;;;6.53;;
4786;SDS011;62338;48.832;9.422;2023-08-06T00:48:16;6.83;;;6.13;;
4786;SDS011;62338;48.832;9.422;2023-08-06T00:50:18;9.47;;;6.37;;
4786;SDS011;62338;48.832;9.422;2023-08-06T00:52:22;9.53;;;6.97;;
4786;SDS011;62338;48.832;9.422;2023-08-06T00:54:24;7.03;;;6.03;;
4786;SDS011;62338;48.832;9.422;2023-08-06T00:56:28;9.93;;;5.83;;
4786;SDS011;62338;48.832;9.422;2023-08-06T00:58:30;9.50;;;6.00;;
4786;SDS011;62338;48.832;9.422;2023-08-06T01:00:32;10.43;;;7.57;;
4786;SDS011;62338;48.832;9.422;2023-08-06T01:02:34;7.20;;;6.20;;
4786;SDS011;62338;48.832;9.422;2023-08-06T01:04:36;8.33;;;6.50;;
4786;SDS011;62338;48.832;9.422;2023-08-06T01:08:58;8.00;;;6.90;;
4786;SDS011;62338;48.832;9.422;2023-08-06T01:13:42;9.27;;;7.40;;
4786;SDS011;62338;48.832;9.422;2023-08-06T01:15:49;9.50;;;7.43;;
4786;SDS011;62338;48.832;9.422;2023-08-06T01:17:53;10.67;;;7.00;;
4786;SDS011;62338;48.832;9.422;2023-08-06T01:19:55;13.73;;;7.40;;
4786;SDS011;62338;48.832;9.422;2023-08-06T01:21:57;11.80;;;7.70;;
4786;SDS011;62338;48.832;9.422;2023-08-06T01:23:58;9.50;;;6.70;;
4786;SDS011;62338;48.832;9.422;2023-08-06T01:30:42;12.10;;;6.80;;
4786;SDS011;62338;48.832;9.422;2023-08-06T01:32:46;10.80;;;7.53;;
4786;SDS011;62338;48.832;9.422;2023-08-06T01:34:52;13.43;;;7.50;;
4786;SDS011;62338;48.832;9.422;2023-08-06T01:36:55;12.80;;;7.10;;
4786;SDS011;62338;48.832;9.422;2023-08-06T01:38:58;11.53;;;7.13;;
4786;SDS011;62338;48.832;9.422;2023-08-06T01:40:59;12.23;;;8.60;;
4786;SDS011;62338;48.832;9.422;2023-08-06T01:43:01;14.03;;;7.40;;
4786;SDS011;62338;48.832;9.422;2023-08-06T01:45:04;10.00;;;6.80;;
4786;SDS011;62338;48.832;9.422;2023-08-06T01:47:09;12.63;;;8.33;;
4786;SDS011;62338;48.832;9.422;2023-08-06T01:49:11;10.40;;;7.10;;
4786;SDS011;62338;48.832;9.422;2023-08-06T01:51:12;10.57;;;7.40;;
4786;SDS011;62338;48.832;9.422;2023-08-06T01:53:14;9.83;;;7.40;;
4786;SDS011;62338;48.832;9.422;2023-08-06T01:55:16;9.27;;;7.20;;
4786;SDS011;62338;48.832;9.422;2023-08-06T01:57:19;9.83;;;8.03;;
4786;SDS011;62338;48.832;9.422;2023-08-06T01:59:20;8.77;;;7.47;;
4786;SDS011;62338;48.832;9.422;2023-08-06T02:01:22;10.80;;;7.27;;
4786;SDS011;62338;48.832;9.422;2023-08-06T02:03:24;9.77;;;7.00;;
4786;SDS011;62338;48.832;9.422;2023-08-06T02:05:26;8.70;;;6.53;;
4786;SDS011;62338;48.832;9.422;2023-08-06T02:07:27;18.60;;;6.77;;
4786;SDS011;62338;48.832;9.422;2023-08-06T02:09:29;7.30;;;6.40;;
4786;SDS011;62338;48.832;9.422;2023-08-06T02:11:31;9.07;;;6.50;;
4786;SDS011;62338;48.832;9.422;2023-08-06T02:13:32;9.40;;;6.40;;
4786;SDS011;62338;48.832;9.422;2023-08-06T02:15:34;7.80;;;6.27;;
4786;SDS011;62338;48.832;9.422;2023-08-06T02:17:36;7.03;;;5.77;;
4786;SDS011;62338;48.832;9.422;2023-08-06T02:19:38;9.60;;;6.60;;
4786;SDS011;62338;48.832;9.422;2023-08-06T02:21:40;8.67;;;6.30;;
4786;SDS011;62338;48.832;9.422;2023-08-06T02:23:42;7.97;;;5.30;;
4786;SDS011;62338;48.832;9.422;2023-08-06T02:25:43;8.53;;;5.40;;
4786;SDS011;62338;48.832;9.422;2023-08-06T02:27:45;7.57;;;6.00;;
4786;SDS011;62338;48.832;9.422;2023-08-06T02:29:47;6.90;;;6.00;;
4786;SDS011;62338;48.832;9.422;2023-08-06T02:31:48;5.70;;;4.30;;
4786;SDS011;62338;48.832;9.422;2023-08-06T02:33:51;5.80;;;5.13;;
4786;SDS011;62338;48.832;9.422;2023-08-06T02:36:01;6.63;;;5.30;;
4786;SDS011;62338;48.832;9.422;2023-08-06T02:38:04;9.00;;;4.60;;
4786;SDS011;62338;48.832;9.422;2023-08-06T02:40:06;8.80;;;5.30;;
4786;SDS011;62338;48.832;9.422;2023-08-06T02:42:09;5.03;;;4.53;;
4786;SDS011;62338;48.832;9.422;2023-08-06T02:44:10;6.87;;;5.13;;
4786;SDS011;62338;48.832;9.422;2023-08-06T02:46:12;6.83;;;4.50;;
4786;SDS011;62338;48.832;9.422;2023-08-06T02:48:14;6.20;;;4.83;;
4786;SDS011;62338;48.832;9.422;2023-08-06T02:50:16;4.90;;;3.90;;
4786;SDS011;62338;48.832;9.422;2023-08-06T02:52:18;5.30;;;3.40;;
4786;SDS011;62338;48.832;9.422;2023-08-06T02:54:19;6.90;;;3.70;;
4786;SDS011;62338;48.832;9.422;2023-08-06T02:56:21;4.00;;;3.53;;
4786;SDS011;62338;48.832;9.422;2023-08-06T02:58:23;5.50;;;3.33;;
4786;SDS011;62338;48.832;9.422;2023-08-06T03:00:25;3.50;;;3.10;;
4786;SDS011;62338;48.832;9.422;2023-08-06T03:02:26;3.93;;;3.10;;
4786;SDS011;62338;48.832;9.422;2023-08-06T03:04:28;4.07;;;3.60;;
4786;SDS011;62338;48.832;9.422;2023-08-06T03:06:30;3.63;;;3.33;;
4786;SDS011;62338;48.832;9.422;2023-08-06T03:08:32;3.20;;;2.90;;
4786;SDS011;62338;48.832;9.422;2023-08-06T03:10:34;3.13;;;2.83;;
4786;SDS011;62338;48.832;9.422;2023-08-06T03:12:36;2.60;;;2.40;;
4786;SDS011;62338;48.832;9.422;2023-08-06T03:14:38;3.47;;;2.77;;
4786;SDS011;62338;48.832;9.422;2023-08-06T03:16:39;4.20;;;2.77;;
4786;SDS011;62338;48.832;9.422;2023-08-06T03:18:41;5.00;;;2.60;;
4786;SDS011;62338;48.832;9.422;2023-08-06T03:20:44;4.73;;;2.73;;
4786;SDS011;62338;48.832;9.422;2023-08-06T03:22:46;5.53;;;3.07;;
4786;SDS011;62338;48.832;9.422;2023-08-06T03:24:50;2.93;;;2.73;;
4786;SDS011;62338;48.832;9.422;2023-08-06T03:26:52;5.43;;;2.77;;
4786;SDS011;62338;48.832;9.422;2023-08-06T03:28:54;4.53;;;3.03;;
4786;SDS011;62338;48.832;9.422;2023-08-06T03:30:59;6.93;;;3.07;;
4786;SDS011;62338;48.832;9.422;2023-08-06T03:33:02;5.40;;;2.50;;
4786;SDS011;62338;48.832;9.422;2023-08-06T03:35:04;3.10;;;2.43;;
4786;SDS011;62338;48.832;9.422;2023-08-06T03:37:06;3.40;;;2.73;;
4786;SDS011;62338;48.832;9.422;2023-08-06T03:39:08;3.40;;;2.27;;
4786;SDS011;62338;48.832;9.422;2023-08-06T03:41:10;3.43;;;2.43;;
4786;SDS011;62338;48.832;9.422;2023-08-06T03:43:12;3.83;;;2.63;;
4786;SDS011;62338;48.832;9.422;2023-08-06T03:45:13;2.90;;;2.53;;
4786;SDS011;62338;48.832;9.422;2023-08-06T03:47:15;5.70;;;3.70;;
4786;SDS011;62338;48.832;9.422;2023-08-06T03:49:17;3.40;;;3.10;;
4786;SDS011;62338;48.832;9.422;2023-08-06T03:51:19;3.60;;;2.80;;
4786;SDS011;62338;48.832;9.422;2023-08-06T03:53:20;3.07;;;2.70;;
4786;SDS011;62338;48.832;9.422;2023-08-06T03:55:22;2.90;;;2.57;;
4786;SDS011;62338;48.832;9.422;2023-08-06T03:57:24;3.10;;;2.30;;
4786;SDS011;62338;48.832;9.422;2023-08-06T03:59:26;2.57;;;2.13;;
4786;SDS011;62338;48.832;9.422;2023-08-06T04:01:27;4.90;;;2.70;;
4786;SDS011;62338;48.832;9.422;2023-08-06T04:03:29;2.20;;;2.00;;
4786;SDS011;62338;48.832;9.422;2023-08-06T04:05:31;2.97;;;2.23;;
4786;SDS011;62338;48.832;9.422;2023-08-06T04:07:34;2.67;;;2.47;;
4786;SDS011;62338;48.832;9.422;2023-08-06T04:09:52;2.70;;;2.03;;
4786;SDS011;62338;48.832;9.422;2023-08-06T04:11:55;2.63;;;2.43;;
4786;SDS011;62338;48.832;9.422;2023-08-06T04:13:59;4.40;;;3.43;;
4786;SDS011;62338;48.832;9.422;2023-08-06T04:16:01;2.47;;;2.03;;
4786;SDS011;62338;48.832;9.422;2023-08-06T04:18:04;2.40;;;2.20;;
4786;SDS011;62338;48.832;9.422;2023-08-06T04:20:06;2.80;;;2.50;;
4786;SDS011;62338;48.832;9.422;2023-08-06T04:22:08;2.47;;;2.00;;
4786;SDS011;62338;48.832;9.422;2023-08-06T04:24:10;3.80;;;2.20;;
4786;SDS011;62338;48.832;9.422;2023-08-06T04:26:11;3.03;;;2.73;;
4786;SDS011;62338;48.832;9.422;2023-08-06T04:28:13;4.03;;;2.77;;
4786;SDS011;62338;48.832;9.422;2023-08-06T04:30:15;3.60;;;2.80;;
4786;SDS011;62338;48.832;9.422;2023-08-06T04:32:17;3.03;;;2.40;;
4786;SDS011;62338;48.832;9.422;2023-08-06T04:34:20;2.90;;;2.60;;
4786;SDS011;62338;48.832;9.422;2023-08-06T04:36:22;4.20;;;3.20;;
4786;SDS011;62338;48.832;9.422;2023-08-06T04:38:24;3.43;;;2.40;;
4786;SDS011;62338;48.832;9.422;2023-08-06T04:40:29;3.43;;;2.50;;
4786;SDS011;62338;48.832;9.422;2023-08-06T04:42:30;5.27;;;2.83;;
4786;SDS011;62338;48.832;9.422;2023-08-06T04:44:32;4.97;;;2.57;;
4786;SDS011;62338;48.832;9.422;2023-08-06T04:46:34;3.23;;;2.50;;
4786;SDS011;62338;48.832;9.422;2023-08-06T04:48:35;3.03;;;2.00;;
4786;SDS011;62338;48.832;9.422;2023-08-06T04:50:37;3.10;;;2.70;;
4786;SDS011;62338;48.832;9.422;2023-08-06T04:52:39;3.00;;;2.50;;
4786;SDS011;62338;48.832;9.422;2023-08-06T04:54:41;4.80;;;2.60;;
4786;SDS011;62338;48.832;9.422;2023-08-06T04:56:42;2.90;;;2.53;;
4786;SDS011;62338;48.832;9.422;2023-08-06T04:58:44;4.30;;;2.50;;
4786;SDS011;62338;48.832;9.422;2023-08-06T05:00:46;6.43;;;2.60;;
4786;SDS011;62338;48.832;9.422;2023-08-06T05:02:49;4.67;;;3.43;;
4786;SDS011;62338;48.832;9.422;2023-08-06T05:04:51;3.43;;;2.60;;
4786;SDS011;62338;48.832;9.422;2023-08-06T05:06:53;6.03;;;2.60;;
4786;SDS011;62338;48.832;9.422;2023-08-06T05:08:55;4.63;;;3.17;;
4786;SDS011;62338;48.832;9.422;2023-08-06T05:10:56;3.93;;;3.00;;
4786;SDS011;62338;48.832;9.422;2023-08-06T05:12:58;3.60;;;2.80;;
4786;SDS011;62338;48.832;9.422;2023-08-06T05:15:00;5.10;;;2.40;;
4786;SDS011;62338;48.832;9.422;2023-08-06T05:17:02;3.13;;;2.57;;
4786;SDS011;62338;48.832;9.422;2023-08-06T05:19:05;2.70;;;2.40;;
4786;SDS011;62338;48.832;9.422;2023-08-06T05:21:07;3.27;;;2.47;;
4786;SDS011;62338;48.832;9.422;2023-08-06T05:23:09;3.40;;;3.00;;
4786;SDS011;62338;48.832;9.422;2023-08-06T05:25:13;3.03;;;2.73;;
4786;SDS011;62338;48.832;9.422;2023-08-06T05:27:15;3.27;;;2.80;;
4786;SDS011;62338;48.832;9.422;2023-08-06T05:29:19;2.90;;;2.63;;
4786;SDS011;62338;48.832;9.422;2023-08-06T05:31:21;2.70;;;2.50;;
4786;SDS011;62338;48.832;9.422;2023-08-06T05:33:23;4.70;;;3.00;;
4786;SDS011;62338;48.832;9.422;2023-08-06T05:35:25;4.17;;;2.67;;
4786;SDS011;62338;48.832;9.422;2023-08-06T05:37:27;2.40;;;2.20;;
4786;SDS011;62338;48.832;9.422;2023-08-06T05:39:29;4.87;;;3.00;;
4786;SDS011;62338;48.832;9.422;2023-08-06T05:41:30;4.90;;;2.60;;
4786;SDS011;62338;48.832;9.422;2023-08-06T05:43:32;2.57;;;2.30;;
4786;SDS011;62338;48.832;9.422;2023-08-06T05:45:34;2.93;;;2.63;;
4786;SDS011;62338;48.832;9.422;2023-08-06T05:47:36;2.63;;;1.97;;
4786;SDS011;62338;48.832;9.422;2023-08-06T05:49:37;2.10;;;1.90;;
4786;SDS011;62338;48.832;9.422;2023-08-06T05:51:39;3.43;;;2.60;;
4786;SDS011;62338;48.832;9.422;2023-08-06T05:53:41;3.40;;;2.30;;
4786;SDS011;62338;48.832;9.422;2023-08-06T05:55:43;2.20;;;2.00;;
4786;SDS011;62338;48.832;9.422;2023-08-06T05:57:44;3.10;;;2.13;;
4786;SDS011;62338;48.832;9.422;2023-08-06T05:59:46;2.20;;;2.10;;
4786;SDS011;62338;48.832;9.422;2023-08-06T06:01:48;3.03;;;1.97;;
4786;SDS011;62338;48.832;9.422;2023-08-06T06:03:50;3.23;;;2.40;;
4786;SDS011;62338;48.832;9.422;2023-08-06T06:05:52;2.80;;;2.30;;
4786;SDS011;62338;48.832;9.422;2023-08-06T06:07:54;2.30;;;1.97;;
4786;SDS011;62338;48.832;9.422;2023-08-06T06:09:55;2.27;;;1.73;;
4786;SDS011;62338;48.832;9.422;2023-08-06T06:11:57;2.40;;;1.90;;
4786;SDS011;62338;48.832;9.422;2023-08-06T06:13:59;2.07;;;1.90;;
4786;SDS011;62338;48.832;9.422;2023-08-06T06:16:01;3.53;;;2.70;;
4786;SDS011;62338;48.832;9.422;2023-08-06T06:18:03;3.10;;;1.87;;
4786;SDS011;62338;48.832;9.422;2023-08-06T06:20:05;1.70;;;1.60;;
4786;SDS011;62338;48.832;9.422;2023-08-06T06:22:07;2.00;;;1.53;;
4786;SDS011;62338;48.832;9.422;2023-08-06T06:24:08;2.70;;;1.80;;
4786;SDS011;62338;48.832;9.422;2023-08-06T06:26:10;2.20;;;1.57;;
4786;SDS011;62338;48.832;9.422;2023-08-06T06:28:14;1.57;;;1.47;;
4786;SDS011;62338;48.832;9.422;2023-08-06T06:30:15;1.57;;;1.40;;
4786;SDS011;62338;48.832;9.422;2023-08-06T06:32:18;3.57;;;1.90;;
4786;SDS011;62338;48.832;9.422;2023-08-06T06:34:19;8.03;;;1.70;;
4786;SDS011;62338;48.832;9.422;2023-08-06T06:36:21;1.37;;;1.27;;
4786;SDS011;62338;48.832;9.422;2023-08-06T06:38:24;1.93;;;1.57;;
4786;SDS011;62338;48.832;9.422;2023-08-06T06:40:26;1.97;;;1.77;;
4786;SDS011;62338;48.832;9.422;2023-08-06T06:42:28;1.43;;;1.33;;
4786;SDS011;62338;48.832;9.422;2023-08-06T06:44:30;3.77;;;1.60;;
4786;SDS011;62338;48.832;9.422;2023-08-06T06:46:31;2.00;;;1.67;;
4786;SDS011;62338;48.832;9.422;2023-08-06T06:48:33;1.70;;;1.60;;
4786;SDS011;62338;48.832;9.422;2023-08-06T06:50:35;1.83;;;1.43;;
4786;SDS011;62338;48.832;9.422;2023-08-06T06:52:37;1.40;;;1.30;;
4786;SDS011;62338;48.832;9.422;2023-08-06T06:54:39;1.20;;;1.10;;
4786;SDS011;62338;48.832;9.422;2023-08-06T06:56:41;1.40;;;1.30;;
4786;SDS011;62338;48.832;9.422;2023-08-06T06:58:43;1.30;;;1.20;;
4786;SDS011;62338;48.832;9.422;2023-08-06T07:00:46;1.33;;;1.23;;
4786;SDS011;62338;48.832;9.422;2023-08-06T07:02:48;1.53;;;1.43;;
4786;SDS011;62338;48.832;9.422;2023-08-06T07:04:50;2.50;;;1.37;;
4786;SDS011;62338;48.832;9.422;2023-08-06T07:06:52;5.33;;;1.40;;
4786;SDS011;62338;48.832;9.422;2023-08-06T07:08:54;0.90;;;0.90;;
4786;SDS011;62338;48.832;9.422;2023-08-06T07:11:02;3.20;;;1.50;;
4786;SDS011;62338;48.832;9.422;2023-08-06T07:13:05;2.77;;;1.33;;
4786;SDS011;62338;48.832;9.422;2023-08-06T07:15:07;1.90;;;1.63;;
4786;SDS011;62338;48.832;9.422;2023-08-06T07:17:09;1.40;;;1.30;;
4786;SDS011;62338;48.832;9.422;2023-08-06T07:19:11;2.40;;;1.30;;
4786;SDS011;62338;48.832;9.422;2023-08-06T07:21:12;1.20;;;1.10;;
4786;SDS011;62338;48.832;9.422;2023-08-06T07:23:15;1.77;;;1.53;;
4786;SDS011;62338;48.832;9.422;2023-08-06T07:25:17;3.37;;;1.40;;
4786;SDS011;62338;48.832;9.422;2023-08-06T07:27:19;1.20;;;1.10;;
4786;SDS011;62338;48.832;9.422;2023-08-06T07:29:20;1.37;;;1.00;;
4786;SDS011;62338;48.832;9.422;2023-08-06T07:31:23;1.40;;;1.30;;
4786;SDS011;62338;48.832;9.422;2023-08-06T07:33:25;1.57;;;1.33;;
4786;SDS011;62338;48.832;9.422;2023-08-06T07:35:28;2.00;;;1.63;;
4786;SDS011;62338;48.832;9.422;2023-08-06T07:37:30;1.90;;;1.30;;
4786;SDS011;62338;48.832;9.422;2023-08-06T07:39:32;2.30;;;1.57;;
4786;SDS011;62338;48.832;9.422;2023-08-06T07:41:34;2.10;;;1.53;;
4786;SDS011;62338;48.832;9.422;2023-08-06T07:43:36;1.33;;;1.17;;
4786;SDS011;62338;48.832;9.422;2023-08-06T07:45:38;1.27;;;1.17;;
4786;SDS011;62338;48.832;9.422;2023-08-06T07:47:40;2.80;;;1.33;;
4786;SDS011;62338;48.832;9.422;2023-08-06T07:49:42;1.00;;;0.90;;
4786;SDS011;62338;48.832;9.422;2023-08-06T07:51:44;1.70;;;1.30;;
4786;SDS011;62338;48.832;9.422;2023-08-06T07:53:46;2.10;;;1.47;;
4786;SDS011;62338;48.832;9.422;2023-08-06T07:55:51;1.57;;;1.17;;
4786;SDS011;62338;48.832;9.422;2023-08-06T07:57:54;1.20;;;1.20;;
4786;SDS011;62338;48.832;9.422;2023-08-06T07:59:55;2.20;;;1.10;;
4786;SDS011;62338;48.832;9.422;2023-08-06T08:01:57;1.23;;;1.20;;
4786;SDS011;62338;48.832;9.422;2023-08-06T08:03:59;1.10;;;1.00;;
4786;SDS011;62338;48.832;9.422;2023-08-06T08:06:01;2.17;;;1.20;;
4786;SDS011;62338;48.832;9.422;2023-08-06T08:08:03;1.30;;;1.20;;
4786;SDS011;62338;48.832;9.422;2023-08-06T08:10:05;2.30;;;1.10;;
4786;SDS011;62338;48.832;9.422;2023-08-06T08:12:07;1.33;;;1.03;;
4786;SDS011;62338;48.832;9.422;2023-08-06T08:14:09;2.10;;;1.00;;
4786;SDS011;62338;48.832;9.422;2023-08-06T08:16:10;0.93;;;0.93;;
4786;SDS011;62338;48.832;9.422;2023-08-06T08:18:12;1.17;;;0.80;;
4786;SDS011;62338;48.832;9.422;2023-08-06T08:20:15;0.90;;;0.90;;
4786;SDS011;62338;48.832;9.422;2023-08-06T08:22:18;0.90;;;0.90;;
4786;SDS011;62338;48.832;9.422;2023-08-06T08:24:20;1.20;;;1.10;;
4786;SDS011;62338;48.832;9.422;2023-08-06T08:26:24;0.80;;;0.80;;
4786;SDS011;62338;48.832;9.422;2023-08-06T08:28:28;1.57;;;0.90;;
4786;SDS011;62338;48.832;9.422;2023-08-06T08:30:31;0.80;;;0.80;;
4786;SDS011;62338;48.832;9.422;2023-08-06T08:32:32;1.30;;;0.90;;
4786;SDS011;62338;48.832;9.422;2023-08-06T08:34:34;0.80;;;0.80;;
4786;SDS011;62338;48.832;9.422;2023-08-06T08:36:36;2.10;;;0.90;;
4786;SDS011;62338;48.832;9.422;2023-08-06T08:38:38;0.80;;;0.80;;
4786;SDS011;62338;48.832;9.422;2023-08-06T08:40:41;0.80;;;0.80;;
4786;SDS011;62338;48.832;9.422;2023-08-06T08:42:52;0.80;;;0.80;;
4786;SDS011;62338;48.832;9.422;2023-08-06T08:44:55;1.43;;;0.80;;
4786;SDS011;62338;48.832;9.422;2023-08-06T08:46:58;0.80;;;0.80;;
4786;SDS011;62338;48.832;9.422;2023-08-06T08:49:01;0.80;;;0.70;;
4786;SDS011;62338;48.832;9.422;2023-08-06T08:51:03;0.73;;;0.73;;
4786;SDS011;62338;48.832;9.422;2023-08-06T08:53:07;0.80;;;0.80;;
4786;SDS011;62338;48.832;9.422;2023-08-06T08:55:11;0.70;;;0.70;;
4786;SDS011;62338;48.832;9.422;2023-08-06T08:57:15;0.70;;;0.70;;
4786;SDS011;62338;48.832;9.422;2023-08-06T08:59:17;1.30;;;0.80;;
4786;SDS011;62338;48.832;9.422;2023-08-06T09:01:20;0.80;;;0.80;;
4786;SDS011;62338;48.832;9.422;2023-08-06T09:03:23;0.70;;;0.70;;
4786;SDS011;62338;48.832;9.422;2023-08-06T09:05:26;0.77;;;0.77;;
4786;SDS011;62338;48.832;9.422;2023-08-06T09:07:31;0.73;;;0.73;;
4786;SDS011;62338;48.832;9.422;2023-08-06T09:09:39;0.80;;;0.80;;
4786;SDS011;62338;48.832;9.422;2023-08-06T09:11:46;0.80;;;0.80;;
4786;SDS011;62338;48.832;9.422;2023-08-06T09:13:50;0.80;;;0.80;;
4786;SDS011;62338;48.832;9.422;2023-08-06T09:15:52;0.80;;;0.80;;
4786;SDS011;62338;48.832;9.422;2023-08-06T09:17:54;0.70;;;0.70;;
4786;SDS011;62338;48.832;9.422;2023-08-06T09:19:56;0.70;;;0.70;;
4786;SDS011;62338;48.832;9.422;2023-08-06T09:21:58;0.70;;;0.70;;
4786;SDS011;62338;48.832;9.422;2023-08-06T09:24:00;0.93;;;0.93;;
4786;SDS011;62338;48.832;9.422;2023-08-06T09:26:02;0.77;;;0.77;;
4786;SDS011;62338;48.832;9.422;2023-08-06T09:28:04;0.70;;;0.70;;
4786;SDS011;62338;48.832;9.422;2023-08-06T09:30:07;1.47;;;0.90;;
4786;SDS011;62338;48.832;9.422;2023-08-06T09:32:09;0.83;;;0.83;;
4786;SDS011;62338;48.832;9.422;2023-08-06T09:34:20;0.73;;;0.73;;
4786;SDS011;62338;48.832;9.422;2023-08-06T09:36:23;0.70;;;0.70;;
4786;SDS011;62338;48.832;9.422;2023-08-06T09:38:25;0.87;;;0.73;;
4786;SDS011;62338;48.832;9.422;2023-08-06T09:40:38;0.63;;;0.63;;
4786;SDS011;62338;48.832;9.422;2023-08-06T09:42:42;0.90;;;0.90;;
4786;SDS011;62338;48.832;9.422;2023-08-06T09:44:46;1.27;;;1.00;;
4786;SDS011;62338;48.832;9.422;2023-08-06T09:46:48;0.70;;;0.70;;
4786;SDS011;62338;48.832;9.422;2023-08-06T09:48:51;0.80;;;0.80;;
4786;SDS011;62338;48.832;9.422;2023-08-06T09:50:52;0.70;;;0.70;;
4786;SDS011;62338;48.832;9.422;2023-08-06T09:52:56;0.80;;;0.80;;
4786;SDS011;62338;48.832;9.422;2023-08-06T09:54:59;0.97;;;0.80;;
4786;SDS011;62338;48.832;9.422;2023-08-06T09:57:01;0.80;;;0.80;;
4786;SDS011;62338;48.832;9.422;2023-08-06T09:59:04;0.70;;;0.70;;
4786;SDS011;62338;48.832;9.422;2023-08-06T10:01:09;0.70;;;0.70;;
4786;SDS011;62338;48.832;9.422;2023-08-06T10:03:13;0.70;;;0.70;;
4786;SDS011;62338;48.832;9.422;2023-08-06T10:05:15;0.70;;;0.70;;
4786;SDS011;62338;48.832;9.422;2023-08-06T10:07:18;0.80;;;0.80;;
4786;SDS011;62338;48.832;9.422;2023-08-06T10:09:20;0.80;;;0.80;;
4786;SDS011;62338;48.832;9.422;2023-08-06T10:11:23;0.70;;;0.70;;
4786;SDS011;62338;48.832;9.422;2023-08-06T10:13:26;0.70;;;0.70;;
4786;SDS011;62338;48.832;9.422;2023-08-06T10:15:29;0.70;;;0.70;;
4786;SDS011;62338;48.832;9.422;2023-08-06T10:17:33;0.80;;;0.80;;
4786;SDS011;62338;48.832;9.422;2023-08-06T10:19:51;0.70;;;0.70;;
4786;SDS011;62338;48.832;9.422;2023-08-06T10:22:12;1.27;;;0.80;;
4786;SDS011;62338;48.832;9.422;2023-08-06T10:24:15;0.80;;;0.80;;
4786;SDS011;62338;48.832;9.422;2023-08-06T10:26:17;0.80;;;0.80;;
4786;SDS011;62338;48.832;9.422;2023-08-06T10:28:18;0.80;;;0.80;;
4786;SDS011;62338;48.832;9.422;2023-08-06T10:30:30;0.70;;;0.70;;
4786;SDS011;62338;48.832;9.422;2023-08-06T10:32:46;0.77;;;0.77;;
4786;SDS011;62338;48.832;9.422;2023-08-06T10:34:59;0.80;;;0.80;;
4786;SDS011;62338;48.832;9.422;2023-08-06T10:37:02;0.70;;;0.70;;
4786;SDS011;62338;48.832;9.422;2023-08-06T10:39:04;3.17;;;0.70;;
4786;SDS011;62338;48.832;9.422;2023-08-06T10:41:07;1.00;;;0.80;;
4786;SDS011;62338;48.832;9.422;2023-08-06T10:43:11;0.80;;;0.80;;
4786;SDS011;62338;48.832;9.422;2023-08-06T10:45:29;0.80;;;0.80;;
4786;SDS011;62338;48.832;9.422;2023-08-06T10:47:38;1.10;;;1.00;;
4786;SDS011;62338;48.832;9.422;2023-08-06T10:49:44;0.87;;;0.87;;
4786;SDS011;62338;48.832;9.422;2023-08-06T10:51:46;0.73;;;0.73;;
4786;SDS011;62338;48.832;9.422;2023-08-06T10:53:49;0.70;;;0.70;;
4786;SDS011;62338;48.832;9.422;2023-08-06T10:55:51;0.70;;;0.70;;
4786;SDS011;62338;48.832;9.422;2023-08-06T10:57:53;1.23;;;0.80;;
4786;SDS011;62338;48.832;9.422;2023-08-06T10:59:56;0.70;;;0.70;;
4786;SDS011;62338;48.832;9.422;2023-08-06T11:02:16;1.27;;;1.07;;
4786;SDS011;62338;48.832;9.422;2023-08-06T11:04:18;0.90;;;0.90;;
4786;SDS011;62338;48.832;9.422;2023-08-06T11:06:21;4.80;;;2.70;;
4786;SDS011;62338;48.832;9.422;2023-08-06T11:08:25;0.93;;;0.93;;
4786;SDS011;62338;48.832;9.422;2023-08-06T11:10:27;2.00;;;1.80;;
4786;SDS011;62338;48.832;9.422;2023-08-06T11:12:30;7.80;;;5.90;;
4786;SDS011;62338;48.832;9.422;2023-08-06T11:14:32;7.97;;;5.13;;
4786;SDS011;62338;48.832;9.422;2023-08-06T11:16:34;8.17;;;5.33;;
4786;SDS011;62338;48.832;9.422;2023-08-06T11:18:36;1.80;;;1.10;;
4786;SDS011;62338;48.832;9.422;2023-08-06T11:20:38;1.27;;;1.00;;
4786;SDS011;62338;48.832;9.422;2023-08-06T11:22:41;1.40;;;1.20;;
4786;SDS011;62338;48.832;9.422;2023-08-06T11:24:42;21.27;;;10.80;;
4786;SDS011;62338;48.832;9.422;2023-08-06T11:26:44;1.20;;;1.17;;
4786;SDS011;62338;48.832;9.422;2023-08-06T11:28:46;4.40;;;1.00;;
4786;SDS011;62338;48.832;9.422;2023-08-06T11:30:48;1.33;;;1.23;;
4786;SDS011;62338;48.832;9.422;2023-08-06T11:32:51;1.93;;;1.00;;
4786;SDS011;62338;48.832;9.422;2023-08-06T11:34:53;1.33;;;1.00;;
4786;SDS011;62338;48.832;9.422;2023-08-06T11:36:56;1.57;;;1.10;;
4786;SDS011;62338;48.832;9.422;2023-08-06T11:38:58;0.90;;;0.90;;
4786;SDS011;62338;48.832;9.422;2023-08-06T11:41:01;5.60;;;5.00;;
4786;SDS011;62338;48.832;9.422;2023-08-06T11:43:05;4.20;;;1.30;;
4786;SDS011;62338;48.832;9.422;2023-08-06T11:45:07;1.27;;;1.10;;
4786;SDS011;62338;48.832;9.422;2023-08-06T11:47:17;1.53;;;1.43;;
4786;SDS011;62338;48.832;9.422;2023-08-06T11:49:19;1.10;;;1.10;;
4786;SDS011;62338;48.832;9.422;2023-08-06T11:51:23;1.50;;;1.40;;
4786;SDS011;62338;48.832;9.422;2023-08-06T11:53:27;1.63;;;1.30;;
4786;SDS011;62338;48.832;9.422;2023-08-06T11:55:30;1.10;;;1.10;;
4786;SDS011;62338;48.832;9.422;2023-08-06T11:57:33;1.23;;;1.13;;
4786;SDS011;62338;48.832;9.422;2023-08-06T11:59:39;1.70;;;1.60;;
4786;SDS011;62338;48.832;9.422;2023-08-06T12:01:41;1.27;;;1.17;;
4786;SDS011;62338;48.832;9.422;2023-08-06T12:03:43;1.40;;;1.30;;
4786;SDS011;62338;48.832;9.422;2023-08-06T12:05:44;1.43;;;1.33;;
4786;SDS011;62338;48.832;9.422;2023-08-06T12:07:48;1.30;;;1.20;;
4786;SDS011;62338;48.832;9.422;2023-08-06T12:09:56;2.53;;;1.40;;
4786;SDS011;62338;48.832;9.422;2023-08-06T12:11:58;1.17;;;1.17;;
4786;SDS011;62338;48.832;9.422;2023-08-06T12:14:00;2.10;;;2.00;;
4786;SDS011;62338;48.832;9.422;2023-08-06T12:16:02;1.60;;;1.50;;
4786;SDS011;62338;48.832;9.422;2023-08-06T12:18:03;2.03;;;1.80;;
4786;SDS011;62338;48.832;9.422;2023-08-06T12:20:06;1.60;;;1.50;;
4786;SDS011;62338;48.832;9.422;2023-08-06T12:22:08;2.10;;;1.90;;
4786;SDS011;62338;48.832;9.422;2023-08-06T12:24:10;2.13;;;1.90;;
4786;SDS011;62338;48.832;9.422;2023-08-06T12:26:13;2.23;;;1.53;;
4786;SDS011;62338;48.832;9.422;2023-08-06T12:28:14;2.90;;;2.33;;
4786;SDS011;62338;48.832;9.422;2023-08-06T12:30:16;3.53;;;1.90;;
4786;SDS011;62338;48.832;9.422;2023-08-06T12:32:18;2.33;;;2.10;;
4786;SDS011;62338;48.832;9.422;2023-08-06T12:34:20;1.87;;;1.77;;
4786;SDS011;62338;48.832;9.422;2023-08-06T12:36:26;3.27;;;2.83;;
4786;SDS011;62338;48.832;9.422;2023-08-06T12:38:27;3.37;;;2.20;;
4786;SDS011;62338;48.832;9.422;2023-08-06T12:40:30;2.37;;;2.17;;